Current | Forecast
Updated: 1:00 PM +10 on March 29, 2017
Observed at Vladivostok, China
Temperature 52°F
Humidity 33%
Dew Point 23°F
Wind SSW at 7 mph
Pressure 29.95 in (Steady)
Conditions Clear
Visibility 6.2 miles
UV N/A
Clouds
Yesterday's Maximum 48°F
Yesterday's Minimum 19°F approx.
Yesterday's Heating Degree Days 31 approx.
Sunrise5:03 AM CST
Sunset5:38 PM CST
Moon Rise5:51 AM CST
Moon Set6:58 PM CST
Moon PhaseMoon Phase
New Moon
Raw METARMETAR UHWW 290300Z 21003MPS 180V270 9999 NSC 11/M05 Q1014 R25L/19//65 NOSIG RMK QFE759


Monday
. High: 68° F.
Tuesday
. High: 66° F.
Wednesday
. High: 68° F.
Thursday
. High: 71° F.
Friday
. High: 68° F.
Saturday
. High: 68° F.
Sunday
. High: 68° F.
Monday
. High: 68° F.

Units: English | Metric

Find the Weather for any City, State or Zipcode, or Country:

U.S. State List | Severe Weather | Tropical Storms | Ski Conditions
United States | Canada | Central America | South America | Asia | Europe | Australia | Africa | Islands

Weather Underground

© Copyright 2017
The Weather Company, LLC